BXS2543 NTTB-NCRG
Flight info
| Callsign | BXS2543 |
|---|---|
| Flight time | 1h 36m |
| Altitude | 38000 |
| Route | SUDOR1A SUDOR DCT MAITO G594 DALUN OSPID1A |
| Aircraft | A320/M-SDE3FGHIRWY/LB1 |
Departure
| Time | 2026-04-27 17:18 |
|---|---|
| Airport | Bora Bora Airport (NTTB) |
Arrival
| Time | 2026-04-27 18:54 |
|---|---|
| Airport | Rarotonga International Airport (NCRG) |
| Time | Latitude | Longitude | Altitude | Speed | Heading |
|---|---|---|---|---|---|
| 2026-04-27 16:47 | -16.44576 | -151.75420 | 14 ft | 0 kts | 168° |
| 2026-04-27 17:13 | -16.44576 | -151.75419 | -13 ft | 2 kts | 77° |
| 2026-04-27 17:13 | -16.44553 | -151.75393 | 16 ft | 5 kts | 40° |
| 2026-04-27 17:14 | -16.44500 | -151.75351 | 14 ft | 12 kts | 36° |
| 2026-04-27 17:14 | -16.44426 | -151.75298 | 17 ft | 13 kts | 34° |
| 2026-04-27 17:14 | -16.44348 | -151.75279 | 18 ft | 12 kts | 328° |
| 2026-04-27 17:14 | -16.44278 | -151.75370 | 21 ft | 29 kts | 304° |
| 2026-04-27 17:15 | -16.44151 | -151.75559 | 22 ft | 33 kts | 305° |
| 2026-04-27 17:15 | -16.44068 | -151.75657 | 23 ft | 14 kts | 331° |
| 2026-04-27 17:15 | -16.44061 | -151.75687 | 23 ft | 3 kts | 168° |
| 2026-04-27 17:15 | -16.44067 | -151.75681 | 24 ft | 0 kts | 130° |
| 2026-04-27 17:16 | -16.44056 | -151.75707 | 26 ft | 0 kts | 122° |
| 2026-04-27 17:17 | -16.44106 | -151.75627 | 23 ft | 55 kts | 123° |
| 2026-04-27 17:17 | -16.44521 | -151.74994 | 24 ft | 150 kts | 125° |
| 2026-04-27 17:17 | -16.45229 | -151.73998 | 597 ft | 183 kts | 125° |
| 2026-04-27 17:18 | -16.46690 | -151.71806 | 2635 ft | 194 kts | 122° |
| 2026-04-27 17:18 | -16.47600 | -151.70663 | 3278 ft | 217 kts | 141° |
| 2026-04-27 17:18 | -16.49088 | -151.70100 | 3781 ft | 244 kts | 172° |
| 2026-04-27 17:18 | -16.50806 | -151.69962 | 4716 ft | 250 kts | 174° |
| 2026-04-27 17:19 | -16.52563 | -151.69830 | 5668 ft | 256 kts | 174° |
| 2026-04-27 17:19 | -16.54354 | -151.69693 | 6586 ft | 261 kts | 174° |
| 2026-04-27 17:19 | -16.56183 | -151.69548 | 7466 ft | 266 kts | 174° |
| 2026-04-27 17:19 | -16.58046 | -151.69648 | 8323 ft | 273 kts | 189° |
| 2026-04-27 17:20 | -16.59945 | -151.69866 | 9040 ft | 288 kts | 180° |
| 2026-04-27 17:20 | -16.62024 | -151.69736 | 9798 ft | 301 kts | 173° |
| 2026-04-27 17:20 | -16.64148 | -151.69486 | 10422 ft | 318 kts | 177° |
| 2026-04-27 17:20 | -16.66403 | -151.69878 | 10793 ft | 342 kts | 203° |
| 2026-04-27 17:21 | -16.68364 | -151.71327 | 11437 ft | 352 kts | 229° |
| 2026-04-27 17:21 | -16.69709 | -151.73430 | 12263 ft | 355 kts | 240° |
| 2026-04-27 17:21 | -16.70975 | -151.75695 | 13164 ft | 358 kts | 240° |
| 2026-04-27 17:21 | -16.72273 | -151.77921 | 13970 ft | 361 kts | 233° |
| 2026-04-27 17:22 | -16.74085 | -151.79749 | 14664 ft | 365 kts | 214° |
| 2026-04-27 17:22 | -16.76398 | -151.80851 | 15367 ft | 369 kts | 194° |
| 2026-04-27 17:22 | -16.78955 | -151.81075 | 16074 ft | 372 kts | 174° |
| 2026-04-27 17:22 | -16.81525 | -151.80672 | 16798 ft | 375 kts | 170° |
| 2026-04-27 17:23 | -16.84113 | -151.80223 | 17516 ft | 379 kts | 170° |
| 2026-04-27 17:23 | -16.86728 | -151.79766 | 18218 ft | 382 kts | 170° |
| 2026-04-27 17:23 | -16.89364 | -151.79306 | 18816 ft | 386 kts | 171° |
| 2026-04-27 17:23 | -16.92021 | -151.78842 | 19430 ft | 389 kts | 171° |
| 2026-04-27 17:24 | -16.94695 | -151.78375 | 20044 ft | 391 kts | 171° |
| 2026-04-27 17:24 | -16.97389 | -151.77909 | 20657 ft | 393 kts | 171° |
| 2026-04-27 17:24 | -17.00102 | -151.77441 | 21248 ft | 396 kts | 171° |
| 2026-04-27 17:24 | -17.02836 | -151.76969 | 21822 ft | 399 kts | 171° |
| 2026-04-27 17:25 | -17.05586 | -151.76493 | 22402 ft | 402 kts | 172° |
| 2026-04-27 17:25 | -17.08363 | -151.76015 | 22961 ft | 406 kts | 172° |
| 2026-04-27 17:25 | -17.11163 | -151.75534 | 23519 ft | 409 kts | 172° |
| 2026-04-27 17:25 | -17.13974 | -151.75051 | 23977 ft | 412 kts | 172° |
| 2026-04-27 17:26 | -17.16814 | -151.74563 | 24434 ft | 415 kts | 172° |
| 2026-04-27 17:26 | -17.19672 | -151.74070 | 24894 ft | 418 kts | 172° |
| 2026-04-27 17:26 | -17.22552 | -151.73571 | 25356 ft | 421 kts | 172° |
| 2026-04-27 17:26 | -17.25485 | -151.73063 | 25821 ft | 423 kts | 172° |
| 2026-04-27 17:27 | -17.28399 | -151.72557 | 26278 ft | 426 kts | 172° |
| 2026-04-27 17:27 | -17.30332 | -151.72222 | 26567 ft | 428 kts | 172° |
| 2026-04-27 17:27 | -17.33288 | -151.71706 | 27010 ft | 431 kts | 172° |
| 2026-04-27 17:27 | -17.36298 | -151.71180 | 27452 ft | 434 kts | 172° |
| 2026-04-27 17:28 | -17.39245 | -151.70678 | 27885 ft | 436 kts | 174° |
| 2026-04-27 17:28 | -17.42274 | -151.70646 | 28292 ft | 436 kts | 189° |
| 2026-04-27 17:28 | -17.47790 | -151.73136 | 29129 ft | 439 kts | 220° |
| 2026-04-27 17:29 | -17.49841 | -151.75507 | 29545 ft | 441 kts | 236° |
| 2026-04-27 17:29 | -17.51432 | -151.78317 | 29943 ft | 444 kts | 240° |
| 2026-04-27 17:29 | -17.52973 | -151.81133 | 30307 ft | 446 kts | 240° |
| 2026-04-27 17:29 | -17.54516 | -151.83963 | 30670 ft | 448 kts | 240° |
| 2026-04-27 17:30 | -17.56072 | -151.86813 | 31043 ft | 449 kts | 239° |
| 2026-04-27 17:30 | -17.59199 | -151.92508 | 31797 ft | 452 kts | 239° |
| 2026-04-27 17:30 | -17.60775 | -151.95370 | 31971 ft | 454 kts | 239° |
| 2026-04-27 17:31 | -17.62326 | -151.98196 | 31994 ft | 441 kts | 239° |
| 2026-04-27 17:31 | -17.63849 | -152.00976 | 31993 ft | 436 kts | 239° |
| 2026-04-27 17:31 | -17.66851 | -152.06459 | 31994 ft | 433 kts | 239° |
| 2026-04-27 17:32 | -17.71351 | -152.14668 | 31994 ft | 433 kts | 239° |
| 2026-04-27 17:33 | -17.74344 | -152.20137 | 31993 ft | 432 kts | 239° |
| 2026-04-27 17:33 | -17.77339 | -152.25607 | 31990 ft | 432 kts | 239° |
| 2026-04-27 17:34 | -17.80326 | -152.31071 | 31987 ft | 431 kts | 239° |
| 2026-04-27 17:34 | -17.83307 | -152.36537 | 31985 ft | 431 kts | 239° |
| 2026-04-27 17:35 | -17.86278 | -152.42008 | 31987 ft | 431 kts | 239° |
| 2026-04-27 17:35 | -17.89266 | -152.47480 | 31987 ft | 431 kts | 239° |
| 2026-04-27 17:36 | -17.92248 | -152.52950 | 31985 ft | 431 kts | 239° |
| 2026-04-27 17:36 | -17.95225 | -152.58421 | 31985 ft | 431 kts | 239° |
| 2026-04-27 17:37 | -17.98187 | -152.63891 | 31984 ft | 431 kts | 239° |
| 2026-04-27 17:37 | -18.01155 | -152.69352 | 31981 ft | 430 kts | 239° |
| 2026-04-27 17:38 | -18.04126 | -152.74829 | 31980 ft | 430 kts | 240° |
| 2026-04-27 17:38 | -18.07089 | -152.80298 | 31984 ft | 430 kts | 240° |
| 2026-04-27 17:39 | -18.10060 | -152.85778 | 31987 ft | 430 kts | 240° |
| 2026-04-27 17:39 | -18.13017 | -152.91255 | 31988 ft | 430 kts | 240° |
| 2026-04-27 17:40 | -18.15973 | -152.96719 | 31989 ft | 430 kts | 240° |
| 2026-04-27 17:40 | -18.18929 | -153.02189 | 31989 ft | 429 kts | 240° |
| 2026-04-27 17:41 | -18.21882 | -153.07665 | 31987 ft | 429 kts | 240° |
| 2026-04-27 17:41 | -18.24811 | -153.13099 | 31987 ft | 429 kts | 240° |
| 2026-04-27 17:42 | -18.27774 | -153.18598 | 31990 ft | 429 kts | 240° |
| 2026-04-27 17:42 | -18.30711 | -153.24064 | 31990 ft | 429 kts | 240° |
| 2026-04-27 17:43 | -18.33652 | -153.29529 | 31992 ft | 428 kts | 240° |
| 2026-04-27 17:43 | -18.36586 | -153.34987 | 31992 ft | 428 kts | 240° |
| 2026-04-27 17:44 | -18.39496 | -153.40419 | 31995 ft | 428 kts | 240° |
| 2026-04-27 17:44 | -18.42422 | -153.45878 | 31994 ft | 427 kts | 240° |
| 2026-04-27 17:45 | -18.45347 | -153.51321 | 31994 ft | 427 kts | 240° |
| 2026-04-27 17:45 | -18.48267 | -153.56770 | 31992 ft | 427 kts | 240° |
| 2026-04-27 17:46 | -18.51178 | -153.62212 | 31994 ft | 426 kts | 240° |
| 2026-04-27 17:46 | -18.54093 | -153.67663 | 31991 ft | 426 kts | 240° |
| 2026-04-27 17:47 | -18.56993 | -153.73104 | 31991 ft | 426 kts | 240° |
| 2026-04-27 17:47 | -18.59901 | -153.78544 | 31992 ft | 426 kts | 240° |
| 2026-04-27 17:48 | -18.62811 | -153.83989 | 31996 ft | 425 kts | 240° |
| 2026-04-27 17:48 | -18.65705 | -153.89416 | 31995 ft | 425 kts | 240° |
| 2026-04-27 17:49 | -18.68594 | -153.94859 | 31995 ft | 425 kts | 240° |
| 2026-04-27 17:49 | -18.71501 | -154.00328 | 31994 ft | 424 kts | 240° |
| 2026-04-27 17:50 | -18.74393 | -154.05761 | 31992 ft | 424 kts | 240° |
| 2026-04-27 17:50 | -18.78716 | -154.13910 | 31996 ft | 424 kts | 241° |
| 2026-04-27 17:51 | -18.81598 | -154.19339 | 31994 ft | 424 kts | 241° |
| 2026-04-27 17:51 | -18.84475 | -154.24770 | 31994 ft | 424 kts | 241° |
| 2026-04-27 17:52 | -18.87355 | -154.30212 | 31996 ft | 424 kts | 241° |
| 2026-04-27 17:52 | -18.89743 | -154.34731 | 31995 ft | 424 kts | 241° |
| 2026-04-27 17:53 | -18.93095 | -154.41078 | 31995 ft | 423 kts | 241° |
| 2026-04-27 17:53 | -18.95964 | -154.46513 | 31995 ft | 423 kts | 241° |
| 2026-04-27 17:54 | -18.98825 | -154.51950 | 31999 ft | 423 kts | 241° |
| 2026-04-27 17:54 | -19.01690 | -154.57391 | 32003 ft | 423 kts | 241° |
| 2026-04-27 17:55 | -19.04550 | -154.62827 | 32002 ft | 423 kts | 242° |
| 2026-04-27 17:55 | -19.07406 | -154.68265 | 32004 ft | 423 kts | 242° |
| 2026-04-27 17:56 | -19.10261 | -154.73696 | 32002 ft | 422 kts | 242° |
| 2026-04-27 17:56 | -19.12648 | -154.78254 | 32004 ft | 422 kts | 242° |
| 2026-04-27 17:57 | -19.15502 | -154.83694 | 32005 ft | 422 kts | 242° |
| 2026-04-27 17:57 | -19.18355 | -154.89129 | 32007 ft | 422 kts | 242° |
| 2026-04-27 17:58 | -19.21204 | -154.94564 | 32010 ft | 422 kts | 242° |
| 2026-04-27 17:58 | -19.24042 | -154.99993 | 32009 ft | 422 kts | 242° |
| 2026-04-27 17:59 | -19.26876 | -155.05425 | 32011 ft | 421 kts | 242° |
| 2026-04-27 17:59 | -19.29712 | -155.10858 | 32011 ft | 421 kts | 242° |
| 2026-04-27 18:00 | -19.32553 | -155.16286 | 32013 ft | 421 kts | 242° |
| 2026-04-27 18:00 | -19.35382 | -155.21717 | 32020 ft | 421 kts | 242° |
| 2026-04-27 18:01 | -19.38200 | -155.27149 | 32018 ft | 420 kts | 242° |
| 2026-04-27 18:01 | -19.41020 | -155.32570 | 32017 ft | 419 kts | 242° |
| 2026-04-27 18:02 | -19.43829 | -155.37977 | 32016 ft | 419 kts | 242° |
| 2026-04-27 18:02 | -19.46648 | -155.43379 | 32011 ft | 418 kts | 242° |
| 2026-04-27 18:03 | -19.49454 | -155.48785 | 32009 ft | 418 kts | 242° |
| 2026-04-27 18:03 | -19.52249 | -155.54201 | 32011 ft | 418 kts | 242° |
| 2026-04-27 18:04 | -19.55046 | -155.59600 | 32016 ft | 418 kts | 242° |
| 2026-04-27 18:04 | -19.57843 | -155.65004 | 32017 ft | 417 kts | 242° |
| 2026-04-27 18:05 | -19.60638 | -155.70398 | 32018 ft | 417 kts | 243° |
| 2026-04-27 18:05 | -19.63422 | -155.75796 | 32016 ft | 417 kts | 243° |
| 2026-04-27 18:06 | -19.66199 | -155.81196 | 32016 ft | 417 kts | 243° |
| 2026-04-27 18:06 | -19.68980 | -155.86596 | 32013 ft | 416 kts | 243° |
| 2026-04-27 18:07 | -19.71757 | -155.91997 | 32014 ft | 416 kts | 243° |
| 2026-04-27 18:07 | -19.74539 | -155.97398 | 32014 ft | 416 kts | 243° |
| 2026-04-27 18:08 | -19.77313 | -156.02788 | 32014 ft | 416 kts | 243° |
| 2026-04-27 18:08 | -19.80087 | -156.08188 | 32013 ft | 416 kts | 243° |
| 2026-04-27 18:09 | -19.82858 | -156.13586 | 32022 ft | 416 kts | 243° |
| 2026-04-27 18:09 | -19.85623 | -156.18976 | 32019 ft | 416 kts | 243° |
| 2026-04-27 18:10 | -19.88389 | -156.24377 | 32018 ft | 416 kts | 243° |
| 2026-04-27 18:10 | -19.91144 | -156.29773 | 32020 ft | 416 kts | 243° |
| 2026-04-27 18:11 | -19.93921 | -156.35219 | 32019 ft | 415 kts | 243° |
| 2026-04-27 18:11 | -19.96673 | -156.40618 | 32021 ft | 415 kts | 243° |
| 2026-04-27 18:12 | -19.99442 | -156.46017 | 32018 ft | 415 kts | 243° |
| 2026-04-27 18:12 | -20.02202 | -156.51407 | 32026 ft | 415 kts | 243° |
| 2026-04-27 18:13 | -20.04955 | -156.56815 | 32027 ft | 415 kts | 243° |
| 2026-04-27 18:13 | -20.07695 | -156.62222 | 32027 ft | 415 kts | 243° |
| 2026-04-27 18:14 | -20.10434 | -156.67630 | 32029 ft | 415 kts | 243° |
| 2026-04-27 18:14 | -20.13181 | -156.73026 | 32031 ft | 415 kts | 243° |
| 2026-04-27 18:15 | -20.15924 | -156.78427 | 32031 ft | 414 kts | 243° |
| 2026-04-27 18:15 | -20.18659 | -156.83829 | 32035 ft | 414 kts | 243° |
| 2026-04-27 18:16 | -20.21389 | -156.89231 | 32039 ft | 414 kts | 243° |
| 2026-04-27 18:16 | -20.24116 | -156.94626 | 32037 ft | 414 kts | 243° |
| 2026-04-27 18:17 | -20.26799 | -157.00044 | 32036 ft | 412 kts | 248° |
| 2026-04-27 18:17 | -20.28744 | -157.05821 | 32033 ft | 412 kts | 251° |
| 2026-04-27 18:18 | -20.30621 | -157.11582 | 32031 ft | 411 kts | 251° |
| 2026-04-27 18:18 | -20.32484 | -157.17343 | 32029 ft | 411 kts | 251° |
| 2026-04-27 18:19 | -20.34353 | -157.23096 | 32026 ft | 411 kts | 251° |
| 2026-04-27 18:19 | -20.36233 | -157.28851 | 32029 ft | 410 kts | 251° |
| 2026-04-27 18:20 | -20.38106 | -157.34591 | 32029 ft | 410 kts | 251° |
| 2026-04-27 18:20 | -20.39961 | -157.40346 | 32033 ft | 410 kts | 251° |
| 2026-04-27 18:21 | -20.41810 | -157.46091 | 32036 ft | 410 kts | 251° |
| 2026-04-27 18:21 | -20.43660 | -157.51838 | 32040 ft | 409 kts | 251° |
| 2026-04-27 18:22 | -20.45510 | -157.57579 | 32046 ft | 409 kts | 251° |
| 2026-04-27 18:22 | -20.47358 | -157.63313 | 32045 ft | 409 kts | 251° |
| 2026-04-27 18:23 | -20.49206 | -157.69047 | 32045 ft | 408 kts | 251° |
| 2026-04-27 18:23 | -20.51050 | -157.74774 | 32044 ft | 408 kts | 251° |
| 2026-04-27 18:24 | -20.52887 | -157.80505 | 32043 ft | 408 kts | 252° |
| 2026-04-27 18:24 | -20.54423 | -157.85307 | 32043 ft | 407 kts | 252° |
| 2026-04-27 18:25 | -20.56250 | -157.91028 | 32042 ft | 407 kts | 252° |
| 2026-04-27 18:25 | -20.58078 | -157.96753 | 32043 ft | 407 kts | 252° |
| 2026-04-27 18:26 | -20.59898 | -158.02469 | 32043 ft | 406 kts | 252° |
| 2026-04-27 18:26 | -20.61720 | -158.08176 | 32046 ft | 406 kts | 251° |
| 2026-04-27 18:27 | -20.63549 | -158.13876 | 32042 ft | 406 kts | 252° |
| 2026-04-27 18:27 | -20.65363 | -158.19585 | 32043 ft | 405 kts | 252° |
| 2026-04-27 18:28 | -20.67175 | -158.25283 | 32043 ft | 405 kts | 252° |
| 2026-04-27 18:28 | -20.68981 | -158.30976 | 32041 ft | 405 kts | 252° |
| 2026-04-27 18:29 | -20.70790 | -158.36669 | 32042 ft | 404 kts | 252° |
| 2026-04-27 18:29 | -20.72592 | -158.42360 | 32041 ft | 404 kts | 252° |
| 2026-04-27 18:30 | -20.74384 | -158.48060 | 32046 ft | 404 kts | 252° |
| 2026-04-27 18:30 | -20.76178 | -158.53742 | 32044 ft | 403 kts | 252° |
| 2026-04-27 18:31 | -20.77973 | -158.59421 | 32047 ft | 403 kts | 252° |
| 2026-04-27 18:31 | -20.79684 | -158.65112 | 32045 ft | 403 kts | 255° |
| 2026-04-27 18:32 | -20.81033 | -158.70921 | 32043 ft | 402 kts | 257° |
| 2026-04-27 18:32 | -20.82259 | -158.76755 | 32044 ft | 402 kts | 257° |
| 2026-04-27 18:33 | -20.83528 | -158.82574 | 32041 ft | 402 kts | 256° |
| 2026-04-27 18:33 | -20.84848 | -158.88429 | 31382 ft | 403 kts | 256° |
| 2026-04-27 18:34 | -20.85509 | -158.91334 | 30733 ft | 401 kts | 256° |
| 2026-04-27 18:34 | -20.86168 | -158.94222 | 30093 ft | 398 kts | 256° |
| 2026-04-27 18:34 | -20.86816 | -158.97086 | 29385 ft | 395 kts | 257° |
| 2026-04-27 18:34 | -20.87455 | -158.99923 | 28772 ft | 390 kts | 257° |
| 2026-04-27 18:35 | -20.88084 | -159.02730 | 28160 ft | 386 kts | 257° |
| 2026-04-27 18:35 | -20.88705 | -159.05509 | 27544 ft | 382 kts | 257° |
| 2026-04-27 18:35 | -20.89320 | -159.08258 | 26950 ft | 378 kts | 257° |
| 2026-04-27 18:35 | -20.89931 | -159.10982 | 26358 ft | 375 kts | 257° |
| 2026-04-27 18:36 | -20.90537 | -159.13678 | 25790 ft | 371 kts | 257° |
| 2026-04-27 18:36 | -20.91138 | -159.16351 | 25217 ft | 369 kts | 257° |
| 2026-04-27 18:36 | -20.91737 | -159.19005 | 24658 ft | 366 kts | 257° |
| 2026-04-27 18:36 | -20.92330 | -159.21641 | 24139 ft | 363 kts | 257° |
| 2026-04-27 18:37 | -20.92921 | -159.24286 | 23609 ft | 359 kts | 257° |
| 2026-04-27 18:37 | -20.93482 | -159.26806 | 23061 ft | 347 kts | 257° |
| 2026-04-27 18:37 | -20.94043 | -159.29323 | 22580 ft | 347 kts | 257° |
| 2026-04-27 18:37 | -20.94603 | -159.31833 | 22073 ft | 348 kts | 257° |
| 2026-04-27 18:38 | -20.95163 | -159.34344 | 21557 ft | 346 kts | 257° |
| 2026-04-27 18:38 | -20.95726 | -159.36875 | 21017 ft | 344 kts | 257° |
| 2026-04-27 18:38 | -20.96276 | -159.39353 | 20500 ft | 342 kts | 257° |
| 2026-04-27 18:38 | -20.96824 | -159.41831 | 19958 ft | 342 kts | 257° |
| 2026-04-27 18:39 | -20.97374 | -159.44312 | 19412 ft | 342 kts | 257° |
| 2026-04-27 18:39 | -20.97924 | -159.46792 | 18862 ft | 343 kts | 257° |
| 2026-04-27 18:39 | -20.98475 | -159.49280 | 18290 ft | 344 kts | 257° |
| 2026-04-27 18:39 | -20.99027 | -159.51767 | 17667 ft | 344 kts | 257° |
| 2026-04-27 18:40 | -20.99579 | -159.54254 | 17104 ft | 343 kts | 257° |
| 2026-04-27 18:40 | -21.00129 | -159.56734 | 16549 ft | 342 kts | 257° |
| 2026-04-27 18:40 | -21.00677 | -159.59204 | 15992 ft | 341 kts | 257° |
| 2026-04-27 18:40 | -21.01227 | -159.61671 | 15441 ft | 340 kts | 256° |
| 2026-04-27 18:41 | -21.01776 | -159.64138 | 14884 ft | 340 kts | 256° |
| 2026-04-27 18:41 | -21.02328 | -159.66633 | 14334 ft | 340 kts | 256° |
| 2026-04-27 18:41 | -21.02862 | -159.69065 | 13785 ft | 340 kts | 256° |
| 2026-04-27 18:41 | -21.03402 | -159.71533 | 13178 ft | 339 kts | 256° |
| 2026-04-27 18:42 | -21.03939 | -159.73989 | 12586 ft | 338 kts | 256° |
| 2026-04-27 18:42 | -21.04295 | -159.75610 | 12208 ft | 337 kts | 256° |
| 2026-04-27 18:42 | -21.05012 | -159.78862 | 11448 ft | 335 kts | 256° |
| 2026-04-27 18:42 | -21.05543 | -159.81278 | 10874 ft | 333 kts | 256° |
| 2026-04-27 18:43 | -21.06071 | -159.83684 | 10388 ft | 329 kts | 256° |
| 2026-04-27 18:43 | -21.06584 | -159.86020 | 10262 ft | 314 kts | 256° |
| 2026-04-27 18:43 | -21.07073 | -159.88248 | 10146 ft | 301 kts | 255° |
| 2026-04-27 18:43 | -21.07543 | -159.90391 | 9929 ft | 292 kts | 255° |
| 2026-04-27 18:44 | -21.08003 | -159.92491 | 9763 ft | 289 kts | 255° |
| 2026-04-27 18:44 | -21.08460 | -159.94587 | 9351 ft | 288 kts | 255° |
| 2026-04-27 18:44 | -21.08916 | -159.96674 | 8917 ft | 288 kts | 256° |
| 2026-04-27 18:44 | -21.09373 | -159.98770 | 8476 ft | 289 kts | 256° |
| 2026-04-27 18:45 | -21.09831 | -160.00871 | 8042 ft | 290 kts | 256° |
| 2026-04-27 18:45 | -21.10290 | -160.02942 | 7597 ft | 279 kts | 254° |
| 2026-04-27 18:45 | -21.11127 | -160.04744 | 7188 ft | 266 kts | 229° |
| 2026-04-27 18:45 | -21.12533 | -160.05945 | 6791 ft | 255 kts | 204° |
| 2026-04-27 18:46 | -21.14205 | -160.06407 | 6376 ft | 245 kts | 179° |
| 2026-04-27 18:46 | -21.15881 | -160.06413 | 5957 ft | 238 kts | 176° |
| 2026-04-27 18:46 | -21.17513 | -160.06415 | 5582 ft | 231 kts | 176° |
| 2026-04-27 18:46 | -21.19097 | -160.06418 | 5221 ft | 225 kts | 176° |
| 2026-04-27 18:47 | -21.20632 | -160.06416 | 4879 ft | 212 kts | 174° |
| 2026-04-27 18:47 | -21.21909 | -160.05942 | 4631 ft | 184 kts | 132° |
| 2026-04-27 18:47 | -21.22355 | -160.04780 | 4219 ft | 167 kts | 83° |
| 2026-04-27 18:47 | -21.21856 | -160.03766 | 3953 ft | 146 kts | 54° |
| 2026-04-27 18:48 | -21.21359 | -160.02901 | 3770 ft | 129 kts | 62° |
| 2026-04-27 18:48 | -21.20925 | -160.02088 | 3620 ft | 124 kts | 64° |
| 2026-04-27 18:48 | -21.20616 | -160.01228 | 3470 ft | 123 kts | 75° |
| 2026-04-27 18:48 | -21.20446 | -160.00329 | 3329 ft | 123 kts | 82° |
| 2026-04-27 18:49 | -21.20354 | -159.99420 | 3171 ft | 122 kts | 85° |
| 2026-04-27 18:49 | -21.20304 | -159.98506 | 3014 ft | 122 kts | 87° |
| 2026-04-27 18:49 | -21.20278 | -159.97588 | 2849 ft | 123 kts | 88° |
| 2026-04-27 18:49 | -21.20264 | -159.96673 | 2690 ft | 123 kts | 89° |
| 2026-04-27 18:50 | -21.20257 | -159.95754 | 2531 ft | 125 kts | 89° |
| 2026-04-27 18:50 | -21.20254 | -159.94830 | 2359 ft | 123 kts | 90° |
| 2026-04-27 18:50 | -21.20252 | -159.93920 | 2203 ft | 121 kts | 90° |
| 2026-04-27 18:50 | -21.20252 | -159.93016 | 2048 ft | 121 kts | 90° |
| 2026-04-27 18:51 | -21.20252 | -159.92117 | 1890 ft | 120 kts | 90° |
| 2026-04-27 18:51 | -21.20253 | -159.91224 | 1735 ft | 120 kts | 90° |
| 2026-04-27 18:51 | -21.20253 | -159.90334 | 1567 ft | 119 kts | 91° |
| 2026-04-27 18:51 | -21.20254 | -159.89745 | 1464 ft | 119 kts | 91° |
| 2026-04-27 18:52 | -21.20254 | -159.88848 | 1301 ft | 119 kts | 90° |
| 2026-04-27 18:52 | -21.20255 | -159.87959 | 1152 ft | 120 kts | 91° |
| 2026-04-27 18:52 | -21.20256 | -159.86787 | 948 ft | 119 kts | 91° |
| 2026-04-27 18:53 | -21.20266 | -159.85287 | 629 ft | 118 kts | 91° |
| 2026-04-27 18:53 | -21.20270 | -159.84391 | 470 ft | 121 kts | 90° |
| 2026-04-27 18:53 | -21.20274 | -159.83499 | 295 ft | 119 kts | 90° |
| 2026-04-27 18:53 | -21.20281 | -159.82610 | 175 ft | 118 kts | 91° |
| 2026-04-27 18:54 | -21.20279 | -159.81732 | 73 ft | 118 kts | 89° |
| 2026-04-27 18:54 | -21.20261 | -159.80908 | 28 ft | 91 kts | 91° |
| 2026-04-27 18:54 | -21.20266 | -159.80640 | 24 ft | 19 kts | 89° |
| 2026-04-27 18:54 | -21.20265 | -159.80487 | 24 ft | 22 kts | 89° |
| 2026-04-27 18:55 | -21.20263 | -159.80322 | 24 ft | 23 kts | 89° |
| 2026-04-27 18:55 | -21.20259 | -159.80147 | 23 ft | 24 kts | 88° |
| 2026-04-27 18:55 | -21.20257 | -159.79965 | 25 ft | 24 kts | 94° |
| 2026-04-27 18:55 | -21.20204 | -159.79830 | 28 ft | 20 kts | 17° |
| 2026-04-27 18:56 | -21.20100 | -159.79808 | 25 ft | 8 kts | 18° |
| 2026-04-27 18:56 | -21.20075 | -159.79805 | 26 ft | 0 kts | 355° |